Time;durP1;ratioP1;P1;durP2;ratioP2;P2;SDS_P1;SDS_P2;PMS_P1;PMS_P2;Temp;Humidity;BMP_temperature;BMP_pressure;BME280_temperature;BME280_humidity;BME280_pressure;Samples;Min_cycle;Max_cycle;Signal;HPM_P1;HPM_P2
2022/03/24 00:01:56;;;;;;;2.15;1.80;;;;;;;;;;1774675;79;26353;-41
2022/03/24 00:04:24;;;;;;;3.83;1.75;;;;;;;;;;1868091;75;26331;-42
2022/03/24 00:06:51;;;;;;;3.08;1.75;;;;;;;;;;1824999;76;26301;-41
2022/03/24 00:09:19;;;;;;;1.67;1.67;;;;;;;;;;1852155;76;26805;-42
2022/03/24 00:11:47;;;;;;;2.00;1.90;;;;;;;;;;1834614;76;26752;-42
2022/03/24 00:14:20;;;;;;;1.80;1.70;;;;;;;;;;1847986;76;26858;-42
2022/03/24 00:16:44;;;;;;;1.95;1.60;;;;;;;;;;1848583;76;26286;-42
2022/03/24 00:19:12;;;;;;;1.77;1.70;;;;;;;;;;1840865;77;26343;-42
2022/03/24 00:21:39;;;;;;;2.10;1.90;;;;;;;;;;1841614;76;26683;-42
2022/03/24 00:24:08;;;;;;;1.65;1.60;;;;;;;;;;1842036;76;26731;-42
2022/03/24 00:26:36;;;;;;;1.60;1.50;;;;;;;;;;1843816;76;26979;-44
2022/03/24 00:29:03;;;;;;;2.35;1.80;;;;;;;;;;1855162;76;26268;-42
2022/03/24 00:31:31;;;;;;;1.80;1.70;;;;;;;;;;1850819;76;26727;-42
2022/03/24 00:33:58;;;;;;;1.50;1.50;;;;;;;;;;1849448;76;26279;-44
2022/03/24 00:36:26;;;;;;;1.82;1.72;;;;;;;;;;1853461;76;26260;-42
2022/03/24 00:38:53;;;;;;;1.70;1.60;;;;;;;;;;1861980;76;27025;-42
2022/03/24 00:41:21;;;;;;;1.60;1.50;;;;;;;;;;1849217;76;26273;-42
2022/03/24 00:43:49;;;;;;;1.80;1.70;;;;;;;;;;1850224;76;27353;-46
2022/03/24 00:46:20;;;;;;;1.72;1.62;;;;;;;;;;1851431;76;26256;-41
2022/03/24 00:48:46;;;;;;;1.90;1.80;;;;;;;;;;1843967;77;26318;-42
2022/03/24 00:51:15;;;;;;;1.70;1.60;;;;;;;;;;1844400;77;26529;-46
2022/03/24 00:53:43;;;;;;;1.60;1.50;;;;;;;;;;1842978;77;26778;-44
2022/03/24 00:56:10;;;;;;;1.80;1.70;;;;;;;;;;1843711;77;26295;-44
2022/03/24 00:58:38;;;;;;;1.50;1.50;;;;;;;;;;1835656;77;26278;-42
2022/03/24 01:01:09;;;;;;;1.75;1.72;;;;;;;;;;1839379;77;27218;-41
2022/03/24 01:03:36;;;;;;;1.50;1.50;;;;;;;;;;1840040;76;26311;-42
2022/03/24 01:06:03;;;;;;;1.60;1.50;;;;;;;;;;1847134;77;26285;-41
2022/03/24 01:08:31;;;;;;;1.70;1.60;;;;;;;;;;1843918;77;26280;-45
2022/03/24 01:10:59;;;;;;;1.60;1.60;;;;;;;;;;1843743;77;26833;-43
2022/03/24 01:13:28;;;;;;;1.65;1.65;;;;;;;;;;1843417;77;26714;-45
2022/03/24 01:15:55;;;;;;;1.60;1.60;;;;;;;;;;1845006;77;26349;-43
2022/03/24 01:18:23;;;;;;;1.37;1.37;;;;;;;;;;1835012;77;27500;-44
2022/03/24 01:20:51;;;;;;;1.65;1.65;;;;;;;;;;1839969;77;26307;-45
2022/03/24 01:23:19;;;;;;;1.72;1.70;;;;;;;;;;1842243;77;26358;-44
2022/03/24 01:25:46;;;;;;;1.50;1.50;;;;;;;;;;1850705;77;26543;-42
2022/03/24 01:28:14;;;;;;;1.60;1.50;;;;;;;;;;1853109;77;26269;-43
2022/03/24 01:30:42;;;;;;;1.55;1.55;;;;;;;;;;1847864;77;26837;-41
2022/03/24 01:33:09;;;;;;;1.65;1.65;;;;;;;;;;1843823;77;26849;-45
2022/03/24 01:35:36;;;;;;;1.60;1.60;;;;;;;;;;1823810;77;26268;-44
2022/03/24 01:38:03;;;;;;;1.67;1.57;;;;;;;;;;1839904;77;26765;-42
2022/03/24 01:40:31;;;;;;;1.60;1.50;;;;;;;;;;1844067;77;26338;-43
2022/03/24 01:42:58;;;;;;;1.50;1.50;;;;;;;;;;1848215;77;26887;-44
2022/03/24 01:45:26;;;;;;;1.52;1.50;;;;;;;;;;1825677;78;26291;-45
2022/03/24 01:47:54;;;;;;;1.50;1.50;;;;;;;;;;1844454;76;26649;-45
2022/03/24 01:50:21;;;;;;;1.72;1.62;;;;;;;;;;1849494;76;26218;-44
2022/03/24 01:52:49;;;;;;;1.45;1.45;;;;;;;;;;1848465;76;26342;-42
2022/03/24 01:55:16;;;;;;;1.55;1.47;;;;;;;;;;1840790;76;26310;-44
2022/03/24 01:57:45;;;;;;;1.42;1.42;;;;;;;;;;1841216;76;26278;-46
2022/03/24 02:00:13;;;;;;;1.50;1.40;;;;;;;;;;1847956;76;26287;-44
2022/03/24 02:02:42;;;;;;;1.50;1.50;;;;;;;;;;1845784;76;26914;-42
2022/03/24 02:05:10;;;;;;;1.60;1.50;;;;;;;;;;1846496;76;27453;-45
2022/03/24 02:07:38;;;;;;;1.62;1.57;;;;;;;;;;1848864;76;26759;-43
2022/03/24 02:10:06;;;;;;;1.50;1.50;;;;;;;;;;1850092;76;26298;-43
2022/03/24 02:12:34;;;;;;;1.52;1.52;;;;;;;;;;1853765;76;26660;-44
2022/03/24 02:15:02;;;;;;;1.50;1.50;;;;;;;;;;1840922;76;26280;-44
2022/03/24 02:17:30;;;;;;;1.80;1.70;;;;;;;;;;1840445;76;26272;-41
2022/03/24 02:19:59;;;;;;;1.75;1.37;;;;;;;;;;1855580;76;26919;-41
2022/03/24 02:22:29;;;;;;;1.62;1.52;;;;;;;;;;1868242;76;26347;-43
2022/03/24 02:24:57;;;;;;;1.70;1.60;;;;;;;;;;1848409;76;26288;-43
2022/03/24 02:27:24;;;;;;;1.50;1.50;;;;;;;;;;1851403;76;26268;-41
2022/03/24 02:29:52;;;;;;;1.50;1.50;;;;;;;;;;1843515;76;26242;-41
2022/03/24 02:32:21;;;;;;;1.45;1.45;;;;;;;;;;1829486;76;26632;-42
2022/03/24 02:34:50;;;;;;;1.52;1.50;;;;;;;;;;1851673;76;26302;-43
2022/03/24 02:37:20;;;;;;;1.40;1.40;;;;;;;;;;1844144;76;26270;-44
2022/03/24 02:39:48;;;;;;;1.60;1.60;;;;;;;;;;1873847;76;26359;-43
2022/03/24 02:42:17;;;;;;;1.50;1.50;;;;;;;;;;1858509;76;26275;-41
2022/03/24 02:44:45;;;;;;;1.50;1.50;;;;;;;;;;1844743;76;26637;-42
2022/03/24 02:47:13;;;;;;;1.50;1.50;;;;;;;;;;1837556;76;26699;-42
2022/03/24 02:49:41;;;;;;;1.37;1.37;;;;;;;;;;1852332;77;26244;-42
2022/03/24 02:52:09;;;;;;;1.72;1.67;;;;;;;;;;1857068;77;26245;-41
2022/03/24 02:54:36;;;;;;;1.30;1.30;;;;;;;;;;1833899;77;26280;-45
2022/03/24 02:57:04;;;;;;;1.62;1.52;;;;;;;;;;1835268;77;26261;-41
2022/03/24 02:59:32;;;;;;;1.37;1.30;;;;;;;;;;1847682;77;26754;-43
2022/03/24 03:02:01;;;;;;;1.30;1.30;;;;;;;;;;1841340;77;26334;-43
2022/03/24 03:04:29;;;;;;;1.40;1.40;;;;;;;;;;1845100;77;26412;-42
2022/03/24 03:06:56;;;;;;;1.60;1.50;;;;;;;;;;1855821;77;26319;-41
2022/03/24 03:09:24;;;;;;;1.60;1.50;;;;;;;;;;1848942;77;26723;-40
2022/03/24 03:11:52;;;;;;;1.20;1.20;;;;;;;;;;1835279;77;26346;-40
2022/03/24 03:14:20;;;;;;;1.45;1.45;;;;;;;;;;1843762;77;26274;-42
2022/03/24 03:16:47;;;;;;;1.50;1.50;;;;;;;;;;1839969;77;26312;-41
2022/03/24 03:19:17;;;;;;;1.47;1.47;;;;;;;;;;1840567;77;26279;-41
2022/03/24 03:21:52;;;;;;;1.55;1.55;;;;;;;;;;1847484;77;26350;-45
2022/03/24 03:24:18;;;;;;;1.47;1.47;;;;;;;;;;1840234;76;26363;-41
2022/03/24 03:26:46;;;;;;;1.52;1.52;;;;;;;;;;1845918;77;26530;-43
2022/03/24 03:29:14;;;;;;;1.25;1.25;;;;;;;;;;1850011;77;26575;-44
2022/03/24 03:31:41;;;;;;;1.40;1.40;;;;;;;;;;1840676;77;26260;-43
2022/03/24 03:34:10;;;;;;;1.30;1.30;;;;;;;;;;1835211;77;26260;-47
2022/03/24 03:36:41;;;;;;;1.35;1.35;;;;;;;;;;1843907;77;26695;-43
2022/03/24 03:39:08;;;;;;;1.57;1.57;;;;;;;;;;1843914;77;26299;-44
2022/03/24 03:41:39;;;;;;;1.37;1.37;;;;;;;;;;1848684;77;26306;-43
2022/03/24 03:44:07;;;;;;;1.75;1.40;;;;;;;;;;1854357;77;27323;-43
2022/03/24 03:46:34;;;;;;;1.50;1.50;;;;;;;;;;1843978;77;26278;-44
2022/03/24 03:49:01;;;;;;;1.50;1.50;;;;;;;;;;1840230;77;26317;-46
2022/03/24 03:51:31;;;;;;;1.40;1.40;;;;;;;;;;1834375;77;26270;-41
2022/03/24 03:53:58;;;;;;;1.50;1.45;;;;;;;;;;1848189;77;26795;-45
2022/03/24 03:56:25;;;;;;;1.47;1.37;;;;;;;;;;1821070;77;26229;-44
2022/03/24 03:58:53;;;;;;;1.60;1.60;;;;;;;;;;1827354;77;26796;-42
2022/03/24 04:01:20;;;;;;;1.20;1.20;;;;;;;;;;1814623;77;26670;-42
2022/03/24 04:03:48;;;;;;;1.52;1.52;;;;;;;;;;1824028;76;26585;-45
2022/03/24 04:06:15;;;;;;;1.45;1.45;;;;;;;;;;1828355;77;26277;-46
2022/03/24 04:08:44;;;;;;;1.50;1.50;;;;;;;;;;1813156;77;26782;-47
2022/03/24 04:11:12;;;;;;;1.30;1.30;;;;;;;;;;1826192;77;27227;-44
2022/03/24 04:13:41;;;;;;;1.50;1.50;;;;;;;;;;1822250;77;26877;-46
2022/03/24 04:16:11;;;;;;;1.50;1.50;;;;;;;;;;1811175;77;26237;-41
2022/03/24 04:18:49;;;;;;;1.30;1.30;;;;;;;;;;1836735;77;26286;-42
2022/03/24 04:21:18;;;;;;;1.75;1.65;;;;;;;;;;1808901;77;26428;-43
2022/03/24 04:23:45;;;;;;;1.45;1.45;;;;;;;;;;1837199;77;26320;-44
2022/03/24 04:26:13;;;;;;;1.37;1.37;;;;;;;;;;1830522;77;26561;-42
2022/03/24 04:28:43;;;;;;;1.45;1.45;;;;;;;;;;1823901;77;26287;-45
2022/03/24 04:31:09;;;;;;;1.42;1.42;;;;;;;;;;1822262;77;26725;-43
2022/03/24 04:33:37;;;;;;;1.40;1.40;;;;;;;;;;1826295;77;26697;-43
2022/03/24 04:36:08;;;;;;;1.27;1.27;;;;;;;;;;1820411;77;26261;-42
2022/03/24 04:38:34;;;;;;;1.50;1.50;;;;;;;;;;1823892;77;26261;-43
2022/03/24 04:41:02;;;;;;;1.50;1.50;;;;;;;;;;1819768;77;26384;-43
2022/03/24 04:43:30;;;;;;;2.00;1.40;;;;;;;;;;1824123;77;26265;-41
2022/03/24 04:45:57;;;;;;;1.37;1.30;;;;;;;;;;1820904;77;26264;-41
2022/03/24 04:48:24;;;;;;;1.50;1.50;;;;;;;;;;1808505;77;26252;-40
2022/03/24 04:50:51;;;;;;;1.55;1.32;;;;;;;;;;1840366;76;26756;-42
2022/03/24 04:53:19;;;;;;;1.40;1.40;;;;;;;;;;1844068;76;26640;-42
2022/03/24 04:55:47;;;;;;;1.90;1.40;;;;;;;;;;1842016;76;26703;-43
2022/03/24 04:58:14;;;;;;;1.60;1.50;;;;;;;;;;1844197;76;26333;-41
2022/03/24 05:00:43;;;;;;;1.42;1.42;;;;;;;;;;1858826;76;26349;-43
2022/03/24 05:03:11;;;;;;;1.40;1.40;;;;;;;;;;1853011;76;26845;-44
2022/03/24 05:05:39;;;;;;;1.50;1.50;;;;;;;;;;1860078;76;26691;-44
2022/03/24 05:08:06;;;;;;;1.65;1.55;;;;;;;;;;1848448;76;26346;-40
2022/03/24 05:10:33;;;;;;;1.50;1.50;;;;;;;;;;1867649;76;26261;-42
2022/03/24 05:13:00;;;;;;;1.37;1.37;;;;;;;;;;1847663;76;26786;-41
2022/03/24 05:15:28;;;;;;;1.45;1.45;;;;;;;;;;1848054;76;26758;-43
2022/03/24 05:17:55;;;;;;;1.30;1.30;;;;;;;;;;1833022;76;26716;-43
2022/03/24 05:20:23;;;;;;;1.35;1.35;;;;;;;;;;1862662;76;26526;-45
2022/03/24 05:22:50;;;;;;;1.20;1.20;;;;;;;;;;1851148;76;26401;-44
2022/03/24 05:25:18;;;;;;;1.45;1.45;;;;;;;;;;1841429;76;26759;-42
2022/03/24 05:27:45;;;;;;;1.50;1.50;;;;;;;;;;1859783;76;26253;-43
2022/03/24 05:30:13;;;;;;;1.35;1.35;;;;;;;;;;1859440;76;26289;-47
2022/03/24 05:32:41;;;;;;;1.50;1.40;;;;;;;;;;1867318;76;26241;-44
2022/03/24 05:35:09;;;;;;;1.45;1.45;;;;;;;;;;1864131;76;26273;-42
2022/03/24 05:37:37;;;;;;;1.50;1.42;;;;;;;;;;1867596;76;26284;-44
2022/03/24 05:40:05;;;;;;;1.22;1.22;;;;;;;;;;1866874;76;26327;-45
2022/03/24 05:42:32;;;;;;;1.40;1.40;;;;;;;;;;1861306;76;26842;-45
2022/03/24 05:45:00;;;;;;;1.55;1.55;;;;;;;;;;1856841;76;26342;-45
2022/03/24 05:47:27;;;;;;;1.62;1.52;;;;;;;;;;1867373;76;26307;-44
2022/03/24 05:49:54;;;;;;;2.22;1.57;;;;;;;;;;1856332;76;26392;-45
2022/03/24 05:52:22;;;;;;;1.50;1.40;;;;;;;;;;1847847;76;26825;-42
2022/03/24 05:54:49;;;;;;;1.87;1.77;;;;;;;;;;1847884;76;26739;-45
2022/03/24 05:57:16;;;;;;;1.40;1.40;;;;;;;;;;1851677;76;26672;-43
2022/03/24 05:59:43;;;;;;;1.42;1.42;;;;;;;;;;1847608;76;27354;-43
2022/03/24 06:02:13;;;;;;;1.60;1.50;;;;;;;;;;1852307;76;26245;-42
2022/03/24 06:04:43;;;;;;;1.40;1.40;;;;;;;;;;1852596;76;26303;-44
2022/03/24 06:07:14;;;;;;;1.40;1.40;;;;;;;;;;1851389;76;26378;-43
2022/03/24 06:09:41;;;;;;;2.15;1.60;;;;;;;;;;1845967;76;26762;-44
2022/03/24 06:12:10;;;;;;;1.90;1.50;;;;;;;;;;1847433;76;26255;-44
2022/03/24 06:14:38;;;;;;;1.70;1.60;;;;;;;;;;1846358;76;26268;-43
2022/03/24 06:17:05;;;;;;;1.70;1.60;;;;;;;;;;1847462;76;26692;-44
2022/03/24 06:19:35;;;;;;;1.50;1.40;;;;;;;;;;1847147;76;26239;-43
2022/03/24 06:22:05;;;;;;;1.52;1.42;;;;;;;;;;1849055;76;26236;-41
2022/03/24 06:24:33;;;;;;;3.35;1.42;;;;;;;;;;1847309;76;26243;-42
2022/03/24 06:27:00;;;;;;;1.57;1.47;;;;;;;;;;1857677;76;26288;-46
2022/03/24 06:29:27;;;;;;;2.58;1.40;;;;;;;;;;1865024;76;26284;-46
2022/03/24 06:31:55;;;;;;;1.70;1.60;;;;;;;;;;1853826;76;26886;-43
2022/03/24 06:34:22;;;;;;;1.85;1.70;;;;;;;;;;1856556;76;26292;-44
2022/03/24 06:36:50;;;;;;;1.60;1.55;;;;;;;;;;1864241;76;26264;-43
2022/03/24 06:39:18;;;;;;;1.92;1.70;;;;;;;;;;1865986;76;26272;-48
2022/03/24 06:41:45;;;;;;;1.55;1.50;;;;;;;;;;1844469;76;26269;-52
2022/03/24 06:44:12;;;;;;;1.87;1.77;;;;;;;;;;1863390;76;26264;-46
2022/03/24 06:46:39;;;;;;;2.35;1.75;;;;;;;;;;1850474;76;26266;-51
2022/03/24 06:49:07;;;;;;;2.08;1.92;;;;;;;;;;1855997;76;26319;-48
2022/03/24 06:51:35;;;;;;;2.62;1.60;;;;;;;;;;1866196;76;26300;-45
2022/03/24 06:54:03;;;;;;;3.42;2.05;;;;;;;;;;1840557;76;26272;-43
2022/03/24 06:56:30;;;;;;;2.05;1.77;;;;;;;;;;1836550;76;26354;-48
2022/03/24 06:58:58;;;;;;;2.02;1.62;;;;;;;;;;1842394;76;26304;-47
2022/03/24 07:01:25;;;;;;;1.77;1.67;;;;;;;;;;1847719;76;26268;-46
2022/03/24 07:03:53;;;;;;;1.67;1.57;;;;;;;;;;1851558;76;26762;-46
2022/03/24 07:06:21;;;;;;;2.77;1.95;;;;;;;;;;1850217;76;26217;-53
2022/03/24 07:08:48;;;;;;;2.30;1.65;;;;;;;;;;1854087;76;26261;-53
2022/03/24 07:11:16;;;;;;;3.90;1.55;;;;;;;;;;1867363;76;26767;-47
2022/03/24 07:13:43;;;;;;;1.75;1.65;;;;;;;;;;1855779;76;26261;-51
2022/03/24 07:16:11;;;;;;;1.85;1.40;;;;;;;;;;1856867;76;26871;-46
2022/03/24 07:18:38;;;;;;;1.47;1.47;;;;;;;;;;1846594;76;26846;-46
2022/03/24 07:21:06;;;;;;;1.70;1.60;;;;;;;;;;1848084;76;26318;-49
2022/03/24 07:23:34;;;;;;;1.60;1.60;;;;;;;;;;1851966;76;26562;-48
2022/03/24 07:26:01;;;;;;;1.60;1.40;;;;;;;;;;1844118;76;25808;-49
2022/03/24 07:28:29;;;;;;;3.00;1.60;;;;;;;;;;1848113;76;26657;-47
2022/03/24 07:30:56;;;;;;;1.45;1.35;;;;;;;;;;1865454;76;26344;-44
2022/03/24 07:33:24;;;;;;;1.70;1.60;;;;;;;;;;1861361;76;26258;-45
2022/03/24 07:35:51;;;;;;;1.40;1.40;;;;;;;;;;1854410;76;26742;-44
2022/03/24 07:38:18;;;;;;;1.77;1.67;;;;;;;;;;1850884;76;26269;-44
2022/03/24 07:40:46;;;;;;;1.50;1.50;;;;;;;;;;1860384;76;26373;-47
2022/03/24 07:43:13;;;;;;;1.80;1.70;;;;;;;;;;1850730;76;26327;-49
2022/03/24 07:45:41;;;;;;;1.65;1.55;;;;;;;;;;1860848;76;26779;-46
2022/03/24 07:48:09;;;;;;;1.67;1.42;;;;;;;;;;1852412;76;26315;-46
2022/03/24 07:50:41;;;;;;;1.70;1.60;;;;;;;;;;1854868;76;26276;-47
2022/03/24 07:53:16;;;;;;;1.82;1.72;;;;;;;;;;1847679;76;26300;-47
2022/03/24 07:55:44;;;;;;;2.27;1.60;;;;;;;;;;1856758;76;26782;-51
2022/03/24 07:58:13;;;;;;;1.57;1.47;;;;;;;;;;1848114;76;26287;-48
2022/03/24 08:00:40;;;;;;;1.60;1.50;;;;;;;;;;1852541;76;26251;-48
2022/03/24 08:03:11;;;;;;;2.37;1.40;;;;;;;;;;1843534;76;26878;-50
2022/03/24 08:05:39;;;;;;;1.40;1.32;;;;;;;;;;1845533;76;26284;-49
2022/03/24 08:08:08;;;;;;;1.77;1.30;;;;;;;;;;1856768;76;26243;-49
2022/03/24 08:10:36;;;;;;;1.67;1.65;;;;;;;;;;1845278;76;26279;-47
2022/03/24 08:13:04;;;;;;;1.50;1.50;;;;;;;;;;1852479;76;26280;-48
2022/03/24 08:15:32;;;;;;;1.37;1.32;;;;;;;;;;1852103;76;26259;-51
2022/03/24 08:18:00;;;;;;;1.30;1.30;;;;;;;;;;1848884;76;26276;-53
2022/03/24 08:20:27;;;;;;;1.95;1.60;;;;;;;;;;1851965;76;26314;-48
2022/03/24 08:22:55;;;;;;;1.42;1.30;;;;;;;;;;1847429;76;26922;-47
2022/03/24 08:25:22;;;;;;;1.77;1.37;;;;;;;;;;1850161;76;26831;-48
2022/03/24 08:27:49;;;;;;;2.30;1.45;;;;;;;;;;1846021;76;26260;-46
2022/03/24 08:30:17;;;;;;;1.50;1.40;;;;;;;;;;1848075;76;26305;-44
2022/03/24 08:32:44;;;;;;;1.77;1.50;;;;;;;;;;1872242;76;26245;-48
2022/03/24 08:35:11;;;;;;;1.47;1.37;;;;;;;;;;1847154;76;26276;-49
2022/03/24 08:37:39;;;;;;;1.30;1.30;;;;;;;;;;1857835;76;27288;-47
2022/03/24 08:40:07;;;;;;;1.45;1.45;;;;;;;;;;1847804;76;26268;-48
2022/03/24 08:42:37;;;;;;;1.42;1.40;;;;;;;;;;1848592;76;26722;-50
2022/03/24 08:45:08;;;;;;;1.50;1.50;;;;;;;;;;1848140;76;26294;-49
2022/03/24 08:47:35;;;;;;;1.42;1.42;;;;;;;;;;1858064;76;26684;-49
2022/03/24 08:50:03;;;;;;;1.37;1.37;;;;;;;;;;1853176;76;26252;-52
2022/03/24 08:52:31;;;;;;;1.40;1.40;;;;;;;;;;1849166;76;26362;-48
2022/03/24 08:54:58;;;;;;;1.32;1.32;;;;;;;;;;1843624;77;26360;-52
2022/03/24 08:57:29;;;;;;;1.50;1.50;;;;;;;;;;1845472;77;26283;-50
2022/03/24 08:59:57;;;;;;;1.40;1.40;;;;;;;;;;1843635;77;26723;-53
2022/03/24 09:02:25;;;;;;;1.55;1.40;;;;;;;;;;1844138;77;26722;-49
2022/03/24 09:04:53;;;;;;;1.30;1.30;;;;;;;;;;1843507;77;26783;-51
2022/03/24 09:07:20;;;;;;;1.60;1.60;;;;;;;;;;1843471;77;26328;-48
2022/03/24 09:09:47;;;;;;;1.40;1.40;;;;;;;;;;1848651;77;26275;-50
2022/03/24 09:12:16;;;;;;;1.40;1.40;;;;;;;;;;1850523;77;26350;-50
2022/03/24 09:14:43;;;;;;;1.55;1.55;;;;;;;;;;1843251;77;26853;-49
2022/03/24 09:17:10;;;;;;;1.40;1.40;;;;;;;;;;1840786;77;26767;-48
2022/03/24 09:19:38;;;;;;;1.40;1.40;;;;;;;;;;1853573;76;26245;-51
2022/03/24 09:22:06;;;;;;;1.20;1.20;;;;;;;;;;1849996;76;26249;-48
2022/03/24 09:24:33;;;;;;;1.52;1.52;;;;;;;;;;1849427;76;26763;-46
2022/03/24 09:27:02;;;;;;;1.98;1.27;;;;;;;;;;1843386;76;26661;-46
2022/03/24 09:29:30;;;;;;;1.50;1.50;;;;;;;;;;1845127;76;26703;-51
2022/03/24 09:31:57;;;;;;;1.40;1.40;;;;;;;;;;1849480;76;26311;-47
2022/03/24 09:34:25;;;;;;;1.40;1.40;;;;;;;;;;1841580;77;26368;-48
2022/03/24 09:36:52;;;;;;;1.27;1.27;;;;;;;;;;1844715;77;26351;-47
2022/03/24 09:39:19;;;;;;;1.50;1.40;;;;;;;;;;1841755;77;26252;-47
2022/03/24 09:41:50;;;;;;;1.60;1.60;;;;;;;;;;1845543;77;26315;-44
2022/03/24 09:44:17;;;;;;;1.50;1.50;;;;;;;;;;1843373;77;26781;-50
2022/03/24 09:46:44;;;;;;;1.70;1.60;;;;;;;;;;1838905;76;28307;-47
2022/03/24 09:49:12;;;;;;;1.67;1.40;;;;;;;;;;1850952;76;26278;-49
2022/03/24 09:51:43;;;;;;;1.35;1.35;;;;;;;;;;1846130;76;26712;-49
2022/03/24 09:54:11;;;;;;;1.62;1.52;;;;;;;;;;1847655;76;26774;-48
2022/03/24 09:56:39;;;;;;;1.65;1.60;;;;;;;;;;1839498;76;26257;-45
2022/03/24 09:59:09;;;;;;;1.52;1.50;;;;;;;;;;1853761;76;26291;-47
2022/03/24 10:01:39;;;;;;;1.77;1.30;;;;;;;;;;1847827;76;26338;-50
2022/03/24 10:04:15;;;;;;;1.40;1.40;;;;;;;;;;1851381;76;26294;-48
2022/03/24 10:06:59;;;;;;;1.50;1.40;;;;;;;;;;1845983;76;25673;-49
2022/03/24 10:09:36;;;;;;;1.47;1.47;;;;;;;;;;1853048;76;26281;-48
2022/03/24 10:12:05;;;;;;;1.30;1.30;;;;;;;;;;1803537;78;26292;-46
2022/03/24 10:14:32;;;;;;;1.37;1.37;;;;;;;;;;1842894;77;26260;-47
2022/03/24 10:17:06;;;;;;;8.08;1.50;;;;;;;;;;1848576;77;26276;-48
2022/03/24 10:19:34;;;;;;;1.32;1.32;;;;;;;;;;1851125;76;26272;-48
2022/03/24 10:22:03;;;;;;;1.62;1.60;;;;;;;;;;1840141;77;28246;-48
2022/03/24 10:24:30;;;;;;;1.50;1.40;;;;;;;;;;1832948;77;26260;-45
2022/03/24 10:27:03;;;;;;;1.95;1.50;;;;;;;;;;1852452;76;26330;-48
2022/03/24 10:29:31;;;;;;;1.52;1.50;;;;;;;;;;1853471;76;26288;-48
2022/03/24 10:32:00;;;;;;;1.40;1.30;;;;;;;;;;1850824;76;26271;-46
2022/03/24 10:34:38;;;;;;;1.57;1.50;;;;;;;;;;1850181;77;26314;-46
2022/03/24 10:37:07;;;;;;;1.37;1.37;;;;;;;;;;1848525;76;26244;-46
2022/03/24 10:39:35;;;;;;;1.47;1.47;;;;;;;;;;1853206;76;26829;-48
2022/03/24 10:42:14;;;;;;;1.50;1.40;;;;;;;;;;1844606;77;26248;-48
2022/03/24 10:44:59;;;;;;;2.35;1.50;;;;;;;;;;1840666;77;26284;-49
2022/03/24 10:47:37;;;;;;;1.50;1.50;;;;;;;;;;1840562;77;26389;-49
2022/03/24 10:50:23;;;;;;;3.10;1.70;;;;;;;;;;1843778;77;26407;-48
2022/03/24 10:52:51;;;;;;;1.62;1.50;;;;;;;;;;1843613;76;26369;-49
2022/03/24 10:55:20;;;;;;;1.32;1.32;;;;;;;;;;1850198;76;26275;-49
2022/03/24 10:57:47;;;;;;;1.40;1.40;;;;;;;;;;1844571;76;26259;-49
2022/03/24 11:00:15;;;;;;;1.45;1.42;;;;;;;;;;1841431;76;27458;-48
2022/03/24 11:02:42;;;;;;;1.20;1.20;;;;;;;;;;1840650;76;26200;-47
2022/03/24 11:05:12;;;;;;;1.75;1.32;;;;;;;;;;1845300;76;26326;-58
2022/03/24 11:07:39;;;;;;;1.35;1.35;;;;;;;;;;1855531;76;26280;-49
2022/03/24 11:10:12;;;;;;;1.80;1.70;;;;;;;;;;1851768;76;26363;-50
2022/03/24 11:12:42;;;;;;;1.27;1.25;;;;;;;;;;1854324;76;25753;-51
2022/03/24 11:15:09;;;;;;;1.50;1.40;;;;;;;;;;1845966;76;26316;-50
2022/03/24 11:17:38;;;;;;;1.40;1.40;;;;;;;;;;1851927;76;26277;-52
2022/03/24 11:20:09;;;;;;;1.60;1.60;;;;;;;;;;1845130;76;26568;-47
2022/03/24 11:22:38;;;;;;;1.50;1.50;;;;;;;;;;1839590;76;26338;-47
2022/03/24 11:25:06;;;;;;;1.40;1.40;;;;;;;;;;1862912;76;26342;-49
2022/03/24 11:27:33;;;;;;;1.35;1.35;;;;;;;;;;1853007;76;26338;-50
2022/03/24 11:30:05;;;;;;;1.55;1.50;;;;;;;;;;1855684;76;26319;-53
2022/03/24 11:32:34;;;;;;;1.90;1.60;;;;;;;;;;1853504;76;26358;-49
2022/03/24 11:35:08;;;;;;;1.87;1.60;;;;;;;;;;1867366;76;26811;-50
2022/03/24 11:37:36;;;;;;;1.45;1.45;;;;;;;;;;1852906;76;26338;-46
2022/03/24 11:40:08;;;;;;;1.42;1.42;;;;;;;;;;1850819;76;26665;-47
2022/03/24 11:42:46;;;;;;;1.40;1.40;;;;;;;;;;1848481;76;26326;-48
2022/03/24 11:45:20;;;;;;;1.70;1.60;;;;;;;;;;1839787;76;26714;-46
2022/03/24 11:47:58;;;;;;;1.50;1.40;;;;;;;;;;1847612;76;26289;-46
2022/03/24 11:50:41;;;;;;;1.60;1.45;;;;;;;;;;1830876;76;26349;-50
2022/03/24 11:53:09;;;;;;;1.57;1.52;;;;;;;;;;1849740;76;26306;-50
2022/03/24 11:55:37;;;;;;;1.50;1.50;;;;;;;;;;1856861;76;26786;-50
2022/03/24 11:58:05;;;;;;;1.50;1.40;;;;;;;;;;1857148;76;26279;-46
2022/03/24 12:00:36;;;;;;;1.40;1.40;;;;;;;;;;1854905;76;26259;-45
2022/03/24 12:03:03;;;;;;;1.62;1.52;;;;;;;;;;1853009;76;26362;-46
2022/03/24 12:05:51;;;;;;;1.40;1.40;;;;;;;;;;1848020;76;26713;-47
2022/03/24 12:08:28;;;;;;;1.40;1.40;;;;;;;;;;1856861;76;26812;-48
2022/03/24 12:10:56;;;;;;;1.85;1.40;;;;;;;;;;1860703;76;26365;-46
2022/03/24 12:13:23;;;;;;;1.25;1.25;;;;;;;;;;1857631;76;25631;-49
2022/03/24 12:16:12;;;;;;;1.45;1.45;;;;;;;;;;1855221;76;26314;-47
2022/03/24 12:18:40;;;;;;;1.35;1.35;;;;;;;;;;1806246;79;26376;-45
2022/03/24 12:21:07;;;;;;;1.40;1.40;;;;;;;;;;1809916;79;26343;-46
2022/03/24 12:23:53;;;;;;;1.50;1.30;;;;;;;;;;1815767;76;26292;-56
2022/03/24 12:26:21;;;;;;;1.50;1.50;;;;;;;;;;1830480;76;28225;-47
2022/03/24 12:28:50;;;;;;;1.62;1.60;;;;;;;;;;1854953;76;26617;-56
2022/03/24 12:31:18;;;;;;;1.32;1.32;;;;;;;;;;1848157;76;26303;-54
2022/03/24 12:33:49;;;;;;;1.40;1.40;;;;;;;;;;1863541;76;26264;-47
2022/03/24 12:36:18;;;;;;;1.50;1.40;;;;;;;;;;1861230;76;26685;-49
2022/03/24 12:38:46;;;;;;;1.37;1.30;;;;;;;;;;1851068;76;26250;-47
2022/03/24 12:41:17;;;;;;;1.40;1.40;;;;;;;;;;1851608;76;27605;-50
2022/03/24 12:43:53;;;;;;;1.37;1.37;;;;;;;;;;1840177;76;26470;-52
2022/03/24 12:46:21;;;;;;;1.40;1.40;;;;;;;;;;1859158;76;26904;-49
2022/03/24 12:48:50;;;;;;;1.30;1.30;;;;;;;;;;1849506;76;26401;-50
2022/03/24 12:51:19;;;;;;;1.75;1.65;;;;;;;;;;1835324;76;26311;-43
2022/03/24 12:53:54;;;;;;;1.50;1.40;;;;;;;;;;1850645;76;26361;-48
2022/03/24 12:56:23;;;;;;;1.45;1.45;;;;;;;;;;1842134;76;26283;-52
2022/03/24 12:58:55;;;;;;;1.47;1.47;;;;;;;;;;1837545;76;26304;-57
2022/03/24 13:01:22;;;;;;;1.45;1.35;;;;;;;;;;1836677;76;27570;-48
2022/03/24 13:03:53;;;;;;;1.27;1.27;;;;;;;;;;1843005;76;26720;-48
2022/03/24 13:06:22;;;;;;;1.40;1.40;;;;;;;;;;1841145;76;26340;-51
2022/03/24 13:09:07;;;;;;;1.40;1.40;;;;;;;;;;1835437;76;26290;-51
2022/03/24 13:11:54;;;;;;;3.58;1.40;;;;;;;;;;1838659;76;26386;-48
2022/03/24 13:14:22;;;;;;;1.67;1.67;;;;;;;;;;1841717;77;27652;-49
2022/03/24 13:17:00;;;;;;;1.50;1.50;;;;;;;;;;1838991;76;26268;-56
2022/03/24 13:19:27;;;;;;;1.40;1.40;;;;;;;;;;1853775;76;26571;-49
2022/03/24 13:21:55;;;;;;;1.47;1.30;;;;;;;;;;1839265;76;26802;-49
2022/03/24 13:24:25;;;;;;;1.65;1.55;;;;;;;;;;1837489;76;26253;-48
2022/03/24 13:26:59;;;;;;;1.30;1.30;;;;;;;;;;1839903;76;26280;-54
2022/03/24 13:29:40;;;;;;;1.50;1.50;;;;;;;;;;1842290;76;26326;-48
2022/03/24 13:32:09;;;;;;;1.40;1.40;;;;;;;;;;1842185;76;26244;-54
2022/03/24 13:34:36;;;;;;;1.47;1.47;;;;;;;;;;1844310;76;27933;-49
2022/03/24 13:37:13;;;;;;;1.60;1.50;;;;;;;;;;1849056;76;26773;-56
2022/03/24 13:39:42;;;;;;;1.30;1.30;;;;;;;;;;1847853;76;26347;-52
2022/03/24 13:42:10;;;;;;;1.40;1.40;;;;;;;;;;1839994;77;26333;-47
2022/03/24 13:44:38;;;;;;;1.42;1.42;;;;;;;;;;1845331;76;26319;-57
2022/03/24 13:47:06;;;;;;;1.40;1.40;;;;;;;;;;1836206;76;26308;-43
2022/03/24 13:49:33;;;;;;;1.55;1.50;;;;;;;;;;1842430;77;26313;-57
2022/03/24 13:52:01;;;;;;;1.70;1.50;;;;;;;;;;1839837;76;26208;-52
2022/03/24 13:54:28;;;;;;;1.30;1.30;;;;;;;;;;1834468;76;26740;-55
2022/03/24 13:56:56;;;;;;;1.40;1.40;;;;;;;;;;1823370;77;26378;-59
2022/03/24 13:59:28;;;;;;;1.72;1.30;;;;;;;;;;1817242;77;26410;-57
2022/03/24 14:01:56;;;;;;;1.40;1.30;;;;;;;;;;1812939;77;26771;-61
2022/03/24 14:04:24;;;;;;;1.40;1.30;;;;;;;;;;1827520;76;26905;-48
2022/03/24 14:06:53;;;;;;;2.12;1.57;;;;;;;;;;1823099;77;26281;-46
2022/03/24 14:09:23;;;;;;;1.37;1.37;;;;;;;;;;1816956;77;26311;-44
2022/03/24 14:11:52;;;;;;;1.40;1.40;;;;;;;;;;1815219;77;26260;-43
2022/03/24 14:14:21;;;;;;;2.05;1.47;;;;;;;;;;1814891;78;26284;-45
2022/03/24 14:16:48;;;;;;;1.47;1.47;;;;;;;;;;1819461;77;26357;-54
2022/03/24 14:19:20;;;;;;;1.60;1.60;;;;;;;;;;1812950;77;26348;-51
2022/03/24 14:21:48;;;;;;;1.22;1.22;;;;;;;;;;1808602;77;26704;-48
2022/03/24 14:24:32;;;;;;;1.50;1.50;;;;;;;;;;1813815;77;26572;-45
2022/03/24 14:27:17;;;;;;;1.92;1.50;;;;;;;;;;1809157;77;26378;-47
2022/03/24 14:29:40;;;;;;;1.30;1.27;;;;;;;;;;1808551;77;26319;-48
2022/03/24 14:32:09;;;;;;;1.50;1.40;;;;;;;;;;1818152;77;26288;-52
2022/03/24 14:34:38;;;;;;;1.50;1.40;;;;;;;;;;1815324;77;26418;-49
2022/03/24 14:37:12;;;;;;;1.42;1.42;;;;;;;;;;1808380;77;27428;-47
2022/03/24 14:39:50;;;;;;;1.30;1.30;;;;;;;;;;1804631;77;26302;-47
2022/03/24 14:42:19;;;;;;;1.50;1.40;;;;;;;;;;1817806;77;26283;-48
2022/03/24 14:44:47;;;;;;;1.77;1.62;;;;;;;;;;1821385;77;26376;-46
2022/03/24 14:47:15;;;;;;;1.20;1.20;;;;;;;;;;1828957;77;26393;-44
2022/03/24 14:49:42;;;;;;;1.40;1.40;;;;;;;;;;1824377;77;26333;-43
2022/03/24 14:52:10;;;;;;;1.30;1.30;;;;;;;;;;1818535;77;26268;-45
2022/03/24 14:54:37;;;;;;;1.40;1.40;;;;;;;;;;1828160;76;26378;-46